Time;durP1;ratioP1;P1;durP2;ratioP2;P2;SDS_P1;SDS_P2;PMS_P1;PMS_P2;Temp;Humidity;BMP_temperature;BMP_pressure;BME280_temperature;BME280_humidity;BME280_pressure;Samples;Min_cycle;Max_cycle;Signal;HPM_P1;HPM_P2
2022/12/06 00:00:49;;;;;;;29.33;17.65;;;;;;;1.10;93.88;96278.84;2040981;29;20063;-65
2022/12/06 00:01:50;;;;;;;27.77;16.80;;;;;;;1.10;93.69;96273.72;2041954;29;20114;-55
2022/12/06 00:02:51;;;;;;;25.20;15.90;;;;;;;1.13;93.59;96266.91;2041490;29;20068;-55
2022/12/06 00:03:54;;;;;;;27.75;18.77;;;;;;;1.16;93.57;96264.31;2041092;29;20055;-56
2022/12/06 00:04:55;;;;;;;27.23;18.13;;;;;;;1.18;93.57;96265.19;2041800;29;20487;-55
2022/12/06 00:06:23;;;;;;;29.23;17.70;;;;;;;1.20;93.41;96268.53;2041697;29;20055;-56
2022/12/06 00:07:24;;;;;;;27.63;17.20;;;;;;;1.18;93.62;96271.13;2038529;29;20047;-55
2022/12/06 00:08:25;;;;;;;30.23;18.58;;;;;;;1.18;93.38;96272.84;2041525;29;20070;-55
2022/12/06 00:09:27;;;;;;;28.90;18.10;;;;;;;1.13;93.68;96264.34;2041011;29;20527;-56
2022/12/06 00:10:28;;;;;;;29.33;17.80;;;;;;;1.20;93.58;96271.94;2040965;29;20055;-55
2022/12/06 00:11:31;;;;;;;24.73;16.77;;;;;;;1.21;93.66;96271.09;2041480;29;20064;-55
2022/12/06 00:12:32;;;;;;;27.80;17.60;;;;;;;1.23;93.33;96271.97;2041639;29;20067;-55
2022/12/06 00:13:33;;;;;;;27.75;17.92;;;;;;;1.11;93.36;96243.88;2041347;29;20055;-56
2022/12/06 00:14:34;;;;;;;28.13;17.40;;;;;;;1.21;93.41;96260.88;2041640;29;20055;-55
2022/12/06 00:15:36;;;;;;;31.42;17.52;;;;;;;1.20;93.19;96255.75;2041557;29;20051;-55
2022/12/06 00:16:37;;;;;;;29.27;18.17;;;;;;;1.20;93.23;96263.44;2041120;29;20086;-55
2022/12/06 00:17:38;;;;;;;29.48;18.02;;;;;;;1.19;92.95;96261.75;2041460;29;20059;-54
2022/12/06 00:18:39;;;;;;;30.88;19.10;;;;;;;1.17;92.98;96256.63;2041425;29;20059;-55
2022/12/06 00:19:40;;;;;;;27.95;16.95;;;;;;;1.14;92.97;96255.81;2041646;29;20051;-54
2022/12/06 00:20:42;;;;;;;32.50;19.20;;;;;;;1.08;92.98;96254.97;2041534;29;20110;-56
2022/12/06 00:21:43;;;;;;;30.13;19.30;;;;;;;1.03;92.80;96256.72;2041537;29;20495;-55
2022/12/06 00:22:44;;;;;;;33.70;19.25;;;;;;;0.94;93.02;96256.78;2040978;29;20484;-55
2022/12/06 00:23:47;;;;;;;32.50;19.33;;;;;;;0.87;92.93;96258.50;2041081;29;20067;-55
2022/12/06 00:24:48;;;;;;;35.33;20.33;;;;;;;0.83;92.93;96263.66;2041266;29;20082;-55
2022/12/06 00:25:49;;;;;;;31.88;18.65;;;;;;;0.77;93.08;96258.56;2041622;29;20070;-55
2022/12/06 00:26:50;;;;;;;37.15;20.65;;;;;;;0.71;93.39;96261.16;2041773;29;20054;-61
2022/12/06 00:27:51;;;;;;;31.85;19.52;;;;;;;0.66;92.92;96262.00;2040928;29;20051;-61
2022/12/06 00:28:54;;;;;;;32.38;19.45;;;;;;;0.64;93.22;96263.75;2041079;29;20097;-60
2022/12/06 00:29:55;;;;;;;34.47;20.90;;;;;;;0.64;93.35;96266.28;2041585;29;20036;-61
2022/12/06 00:30:57;;;;;;;39.17;21.90;;;;;;;0.55;93.49;96250.97;2040861;29;20048;-61
2022/12/06 00:31:58;;;;;;;35.20;20.45;;;;;;;0.62;93.96;96268.00;2041292;29;20047;-62
2022/12/06 00:32:59;;;;;;;32.00;19.73;;;;;;;0.71;94.16;96274.78;2041063;29;20051;-62
2022/12/06 00:34:01;;;;;;;32.20;19.83;;;;;;;0.60;93.80;96253.53;2041583;29;20143;-62
2022/12/06 00:35:02;;;;;;;32.70;19.85;;;;;;;0.60;94.13;96251.81;2041982;29;20419;-62
2022/12/06 00:36:05;;;;;;;31.50;20.05;;;;;;;0.62;94.24;96262.88;2043333;29;20046;-62
2022/12/06 00:37:06;;;;;;;34.53;20.60;;;;;;;0.68;94.43;96271.38;2043102;29;20056;-61
2022/12/06 00:38:07;;;;;;;32.22;19.33;;;;;;;0.64;94.32;96273.97;2042660;29;20480;-60
2022/12/06 00:39:10;;;;;;;34.03;21.02;;;;;;;0.62;94.34;96262.88;2043499;28;20052;-61
2022/12/06 00:40:11;;;;;;;32.83;19.65;;;;;;;0.62;94.41;96267.16;2042970;29;20062;-61
2022/12/06 00:41:15;;;;;;;33.58;19.17;;;;;;;0.61;94.23;96270.53;2043156;29;20145;-61
2022/12/06 00:42:16;;;;;;;39.53;21.58;;;;;;;0.57;94.35;96269.72;2042726;29;20483;-61
2022/12/06 00:43:17;;;;;;;35.38;21.13;;;;;;;0.55;94.23;96263.75;2042626;29;20063;-60
2022/12/06 00:44:18;;;;;;;31.05;18.98;;;;;;;0.62;94.40;96275.66;2043363;29;20068;-61
2022/12/06 00:45:19;;;;;;;32.78;18.75;;;;;;;0.64;94.30;96265.41;2041976;29;20439;-60
2022/12/06 00:46:27;;;;;;;36.13;21.05;;;;;;;0.63;94.35;96266.28;2042656;29;20056;-61
2022/12/06 00:47:28;;;;;;;35.45;19.65;;;;;;;0.64;93.96;96265.41;2043252;29;20452;-61
2022/12/06 00:48:29;;;;;;;36.35;20.13;;;;;;;0.51;94.74;96251.88;2043516;29;20059;-61
2022/12/06 00:49:30;;;;;;;34.38;20.92;;;;;;;0.59;94.67;96268.00;2042852;29;20066;-61
2022/12/06 00:50:32;;;;;;;33.85;20.38;;;;;;;0.55;94.67;96250.13;2042448;29;20082;-61
2022/12/06 00:51:33;;;;;;;33.35;19.88;;;;;;;0.66;94.83;96272.22;2042859;29;20158;-60
2022/12/06 00:52:34;;;;;;;34.92;20.88;;;;;;;0.64;94.42;96256.06;2042783;29;20480;-61
2022/12/06 00:53:35;;;;;;;33.78;19.30;;;;;;;0.70;94.28;96264.56;2042660;29;20047;-60
2022/12/06 00:54:36;;;;;;;35.92;19.67;;;;;;;0.68;94.38;96264.56;2042637;29;20051;-61
2022/12/06 00:55:37;;;;;;;31.00;18.85;;;;;;;0.60;94.33;96241.59;2043125;29;20546;-60
2022/12/06 00:56:39;;;;;;;34.47;20.20;;;;;;;0.69;94.60;96257.75;2042641;29;20059;-60
2022/12/06 00:57:40;;;;;;;31.90;18.88;;;;;;;0.63;94.36;96251.78;2043017;29;20051;-60
2022/12/06 00:58:41;;;;;;;30.88;19.20;;;;;;;0.70;94.72;96256.91;2042505;29;20543;-60
2022/12/06 00:59:42;;;;;;;32.70;19.92;;;;;;;0.74;94.51;96256.84;2043215;29;20057;-60
2022/12/06 01:00:43;;;;;;;32.60;19.55;;;;;;;0.68;94.33;96259.44;2042452;29;20415;-60
2022/12/06 01:01:44;;;;;;;31.40;19.95;;;;;;;0.72;94.35;96252.59;2043214;29;20059;-60
2022/12/06 01:02:45;;;;;;;32.45;20.13;;;;;;;0.72;94.30;96252.59;2043208;29;20051;-61
2022/12/06 01:03:50;;;;;;;32.10;19.08;;;;;;;0.75;94.14;96260.25;2042981;29;20060;-61
2022/12/06 01:04:51;;;;;;;32.63;19.52;;;;;;;0.79;94.39;96259.41;2042313;29;20212;-61
2022/12/06 01:05:52;;;;;;;34.00;19.88;;;;;;;0.73;94.36;96247.50;2042627;29;20069;-61
2022/12/06 01:06:53;;;;;;;30.38;19.13;;;;;;;0.80;94.50;96256.84;2042815;29;20399;-60
2022/12/06 01:07:54;;;;;;;27.10;16.77;;;;;;;0.80;94.05;96255.97;2042770;29;20051;-60
2022/12/06 01:08:56;;;;;;;31.75;20.45;;;;;;;0.80;94.51;96249.19;2042748;29;20392;-60
2022/12/06 01:09:57;;;;;;;32.47;19.73;;;;;;;0.85;94.33;96249.13;2042194;29;20059;-60
2022/12/06 01:10:59;;;;;;;30.48;19.30;;;;;;;0.77;93.87;96243.22;2042919;29;20048;-60
2022/12/06 01:12:00;;;;;;;32.78;20.08;;;;;;;0.85;94.02;96252.53;2043044;29;20047;-61
2022/12/06 01:13:01;;;;;;;31.20;19.33;;;;;;;0.78;93.92;96263.69;2042950;29;20051;-61
2022/12/06 01:14:02;;;;;;;34.40;19.77;;;;;;;0.83;94.32;96263.66;2042538;29;20067;-61
2022/12/06 01:15:04;;;;;;;32.90;18.75;;;;;;;0.85;94.25;96260.22;2043076;29;20376;-61
2022/12/06 01:16:25;;;;;;;32.08;19.10;;;;;;;0.86;94.08;96259.38;2042814;29;20047;-61
2022/12/06 01:17:26;;;;;;;32.33;19.02;;;;;;;0.85;94.03;96256.81;2042852;29;20056;-61
2022/12/06 01:18:27;;;;;;;32.28;18.95;;;;;;;0.83;93.99;96261.09;2042840;29;20043;-60
2022/12/06 01:19:29;;;;;;;33.63;20.15;;;;;;;0.75;94.10;96243.25;2042883;29;20083;-60
2022/12/06 01:20:30;;;;;;;31.40;19.52;;;;;;;0.73;93.69;96241.53;2043008;29;20043;-60
2022/12/06 01:21:31;;;;;;;32.70;19.98;;;;;;;0.79;93.99;96254.28;2042136;29;20518;-61
2022/12/06 01:22:32;;;;;;;36.03;19.98;;;;;;;0.75;93.90;96248.34;2041870;29;20063;-60
2022/12/06 01:23:33;;;;;;;35.00;20.25;;;;;;;0.75;94.51;96262.81;2042398;29;20424;-60
2022/12/06 01:24:34;;;;;;;32.22;19.52;;;;;;;0.73;94.36;96264.56;2043453;29;20044;-60
2022/12/06 01:25:35;;;;;;;34.15;19.88;;;;;;;0.72;94.29;96258.56;2043124;29;20039;-61
2022/12/06 01:26:36;;;;;;;34.13;19.92;;;;;;;0.71;93.96;96262.00;2042957;29;20052;-61
2022/12/06 01:27:38;;;;;;;33.80;20.42;;;;;;;0.68;94.33;96259.44;2043059;29;20112;-60
2022/12/06 01:28:39;;;;;;;32.35;19.80;;;;;;;0.68;94.20;96261.16;2042874;29;20051;-61
2022/12/06 01:29:40;;;;;;;35.47;19.85;;;;;;;0.66;93.93;96253.50;2042944;29;20058;-61
2022/12/06 01:30:41;;;;;;;33.17;19.38;;;;;;;0.63;94.25;96253.50;2042463;29;20060;-61
2022/12/06 01:31:42;;;;;;;32.88;20.15;;;;;;;0.60;93.89;96262.03;2042568;29;20407;-61
2022/12/06 01:32:43;;;;;;;30.85;19.98;;;;;;;0.58;93.88;96260.34;2042561;29;20056;-61
2022/12/06 01:33:44;;;;;;;35.85;20.60;;;;;;;0.47;94.13;96242.50;2042883;29;20044;-60
2022/12/06 01:34:50;;;;;;;33.53;20.75;;;;;;;0.48;94.24;96256.13;2042979;29;20048;-61
2022/12/06 01:35:51;;;;;;;36.53;21.17;;;;;;;0.32;93.41;96243.41;2042135;29;20455;-61
2022/12/06 01:36:53;;;;;;;35.15;21.08;;;;;;;0.35;93.83;96261.28;2042559;29;20051;-55
2022/12/06 01:37:54;;;;;;;36.10;20.42;;;;;;;0.30;94.32;96257.06;2042701;29;20055;-55
2022/12/06 01:38:56;;;;;;;34.95;21.05;;;;;;;0.26;94.53;96250.25;2042550;29;20396;-55
2022/12/06 01:39:57;;;;;;;37.92;20.83;;;;;;;0.21;94.11;96251.13;2042791;29;20044;-55
2022/12/06 01:40:58;;;;;;;38.17;21.83;;;;;;;0.12;93.99;96246.00;2042664;29;20051;-55
2022/12/06 01:41:59;;;;;;;37.80;21.67;;;;;;;0.14;94.32;96248.56;2042930;29;20453;-61
2022/12/06 01:43:00;;;;;;;40.17;22.17;;;;;;;0.11;93.78;96254.53;2042653;29;20058;-61
2022/12/06 01:44:02;;;;;;;38.65;22.20;;;;;;;0.07;94.34;96254.53;2042413;29;20070;-61
2022/12/06 01:45:04;;;;;;;37.85;22.05;;;;;;;-0.03;94.11;96244.38;2042403;29;20052;-61
2022/12/06 01:46:08;;;;;;;38.75;21.10;;;;;;;-0.04;93.71;96252.00;2042632;29;20062;-62
2022/12/06 01:47:33;;;;;;;38.20;22.00;;;;;;;-0.09;93.72;96252.00;2041097;29;20047;-61
2022/12/06 01:48:34;;;;;;;40.45;22.10;;;;;;;-0.15;93.61;96257.13;2041807;29;20060;-61
2022/12/06 01:49:35;;;;;;;38.40;21.52;;;;;;;-0.17;93.58;96250.31;2042155;29;20423;-61
2022/12/06 01:50:38;;;;;;;38.95;21.77;;;;;;;-0.19;94.22;96250.31;2033717;29;20067;-61
2022/12/06 01:51:44;;;;;;;42.13;22.13;;;;;;;-0.20;93.81;96258.84;2042164;29;20110;-62
2022/12/06 01:52:52;;;;;;;43.85;23.17;;;;;;;-0.19;94.38;96264.78;2042305;29;20052;-61
2022/12/06 01:53:53;;;;;;;37.63;20.52;;;;;;;-0.16;94.60;96257.13;2027498;29;20520;-61
2022/12/06 01:54:54;;;;;;;39.03;21.95;;;;;;;-0.18;94.41;96261.41;2034476;29;20052;-61
2022/12/06 01:55:55;;;;;;;41.67;22.90;;;;;;;-0.17;94.38;96257.97;2042096;29;20059;-61
2022/12/06 01:56:57;;;;;;;45.75;24.48;;;;;;;-0.17;94.63;96253.72;2033880;29;20492;-61
2022/12/06 01:58:01;;;;;;;42.97;23.30;;;;;;;-0.17;94.98;96253.72;2034004;29;20052;-60
2022/12/06 01:59:03;;;;;;;40.55;23.35;;;;;;;-0.17;95.31;96251.16;2034608;29;20056;-62
2022/12/06 02:00:04;;;;;;;38.88;22.85;;;;;;;-0.26;94.67;96234.19;2042144;29;20059;-61
2022/12/06 02:01:11;;;;;;;41.25;22.73;;;;;;;-0.14;94.95;96250.31;2042567;29;20032;-62
2022/12/06 02:02:12;;;;;;;38.15;21.88;;;;;;;-0.09;94.87;96254.56;2042198;29;20047;-59
2022/12/06 02:03:17;;;;;;;42.92;24.02;;;;;;;-0.10;95.68;96255.44;2034324;29;20055;-59
2022/12/06 02:04:18;;;;;;;42.63;23.75;;;;;;;-0.09;95.74;96246.91;2034267;29;20052;-59
2022/12/06 02:05:19;;;;;;;42.65;22.80;;;;;;;-0.04;95.44;96255.41;2033965;29;20504;-59
2022/12/06 02:06:20;;;;;;;40.78;23.23;;;;;;;-0.01;95.47;96245.19;2041990;29;20051;-59
2022/12/06 02:07:22;;;;;;;42.75;23.50;;;;;;;-0.02;95.66;96238.38;2041520;29;20052;-59
2022/12/06 02:08:23;;;;;;;42.55;23.88;;;;;;;-0.07;95.69;96229.03;2033669;29;20063;-59
2022/12/06 02:09:25;;;;;;;41.95;23.98;;;;;;;-0.05;95.77;96235.00;2042045;29;20388;-59
2022/12/06 02:10:26;;;;;;;44.38;24.45;;;;;;;-0.07;96.26;96224.78;2042032;29;20055;-59
2022/12/06 02:11:27;;;;;;;44.90;24.73;;;;;;;-0.04;95.74;96237.53;2042477;29;20060;-61
2022/12/06 02:12:28;;;;;;;46.10;24.75;;;;;;;0.02;95.94;96244.31;2042465;29;20059;-62
2022/12/06 02:13:30;;;;;;;40.50;22.70;;;;;;;0.02;96.25;96239.22;2042279;29;20063;-61
2022/12/06 02:14:32;;;;;;;41.45;24.27;;;;;;;0.03;95.83;96237.50;2048882;29;20488;-62
2022/12/06 02:15:47;;;;;;;41.70;23.60;;;;;;;0.00;96.17;96228.19;2049526;29;20067;-61
2022/12/06 02:16:56;;;;;;;41.63;21.60;;;;;;;0.02;95.84;96226.44;2042237;29;20416;-62
2022/12/06 02:18:04;;;;;;;44.03;23.73;;;;;;;0.03;95.91;96229.84;2036214;29;20052;-61
2022/12/06 02:19:11;;;;;;;37.22;21.67;;;;;;;0.09;95.61;96237.53;2027179;29;20064;-62
2022/12/06 02:20:30;;;;;;;40.00;22.67;;;;;;;0.10;95.41;96224.72;2034838;29;20052;-63
2022/12/06 02:21:52;;;;;;;40.50;23.35;;;;;;;0.10;95.79;96227.28;2041620;29;20047;-62
2022/12/06 02:22:56;;;;;;;39.70;21.80;;;;;;;0.13;95.98;96231.53;2041979;29;20051;-62
2022/12/06 02:24:35;;;;;;;41.28;21.40;;;;;;;0.15;96.28;96228.13;2041774;29;20054;-62
2022/12/06 02:25:48;;;;;;;;;;;;;;;0.14;95.88;96230.69;2043087;29;20483;-62
2022/12/06 02:26:50;;;;;;;41.05;21.85;;;;;;;0.04;95.74;96217.09;2042524;29;20056;-62
2022/12/06 02:28:09;;;;;;;38.28;21.95;;;;;;;0.12;95.73;96222.19;2041717;29;20047;-62
2022/12/06 02:29:15;;;;;;;;;;;;;;;0.15;95.97;96223.00;2042941;29;20044;-62
2022/12/06 02:30:33;;;;;;;38.55;22.25;;;;;;;0.12;96.05;96220.47;2041265;29;19915;-62
2022/12/06 02:31:40;;;;;;;39.08;20.83;;;;;;;0.17;95.96;96223.03;2036064;29;20060;-62
2022/12/06 02:32:46;;;;;;;38.28;22.17;;;;;;;0.19;96.07;96219.63;2026874;29;20063;-62
2022/12/06 02:33:51;;;;;;;36.78;22.02;;;;;;;0.13;96.09;96206.00;2034444;29;20056;-61
2022/12/06 02:35:18;;;;;;;37.30;21.60;;;;;;;0.17;95.93;96212.81;2033785;29;20078;-62
2022/12/06 02:36:31;;;;;;;37.83;20.90;;;;;;;0.10;95.74;96196.63;2037004;29;20051;-62
2022/12/06 02:37:36;;;;;;;37.95;21.00;;;;;;;0.13;95.59;96193.22;2035559;29;20044;-62
2022/12/06 02:38:50;;;;;;;36.13;21.17;;;;;;;0.22;95.41;96206.81;2027174;29;20036;-62
2022/12/06 02:39:56;;;;;;;33.50;19.25;;;;;;;0.27;96.07;96203.38;2032195;29;20048;-62
2022/12/06 02:40:59;;;;;;;33.38;19.92;;;;;;;0.24;95.97;96204.25;2027357;29;20051;-62
2022/12/06 02:42:05;;;;;;;36.38;20.98;;;;;;;0.25;95.76;96205.97;2033928;29;20095;-60
2022/12/06 02:43:15;;;;;;;34.28;20.75;;;;;;;0.26;95.40;96209.38;2034093;29;20055;-59
2022/12/06 02:44:32;;;;;;;36.35;20.88;;;;;;;0.18;96.04;96184.69;2034553;29;20067;-59
2022/12/06 02:45:36;;;;;;;35.30;19.42;;;;;;;0.24;95.28;96203.41;2028237;29;20063;-60
2022/12/06 02:46:37;;;;;;;37.20;21.42;;;;;;;0.27;95.32;96208.50;2020289;29;20053;-55
2022/12/06 02:47:38;;;;;;;40.63;21.75;;;;;;;0.25;95.26;96200.00;2026066;29;20052;-55
2022/12/06 02:48:39;;;;;;;35.53;20.02;;;;;;;0.29;95.28;96206.78;2026164;29;20108;-55
2022/12/06 02:49:45;;;;;;;33.08;19.48;;;;;;;0.28;95.50;96192.34;2026033;29;20057;-54
2022/12/06 02:50:54;;;;;;;32.88;20.02;;;;;;;0.20;95.43;96190.66;2034370;29;20048;-55
2022/12/06 02:51:55;;;;;;;33.42;18.92;;;;;;;0.28;95.64;96207.66;2027521;29;20057;-62
2022/12/06 02:52:58;;;;;;;38.03;20.75;;;;;;;0.17;95.42;96190.66;2026781;29;20084;-61
2022/12/06 02:54:00;;;;;;;35.38;21.02;;;;;;;0.28;95.12;96205.94;2033574;29;20439;-62
2022/12/06 02:55:01;;;;;;;32.22;19.65;;;;;;;0.28;95.32;96202.56;2033686;29;20063;-61
2022/12/06 02:56:02;;;;;;;32.15;19.42;;;;;;;0.27;95.18;96198.28;2041716;29;20054;-62
2022/12/06 02:57:03;;;;;;;33.92;20.27;;;;;;;0.29;95.17;96199.97;2033152;29;20182;-62
2022/12/06 02:58:04;;;;;;;32.95;19.20;;;;;;;0.33;95.56;96203.38;2033557;29;20048;-62
2022/12/06 02:59:05;;;;;;;30.98;18.77;;;;;;;0.30;95.58;96211.06;2042311;29;20403;-62
2022/12/06 03:00:41;;;;;;;32.00;19.05;;;;;;;0.33;95.35;96208.50;2041832;29;20052;-62
2022/12/06 03:01:44;;;;;;;31.73;18.65;;;;;;;0.29;95.28;96202.53;2042355;29;20047;-55
2022/12/06 03:02:45;;;;;;;30.10;17.67;;;;;;;0.26;95.28;96204.25;2048552;29;20063;-55
2022/12/06 03:04:05;;;;;;;30.70;18.30;;;;;;;0.31;95.07;96211.03;2041933;29;20051;-54
2022/12/06 03:05:15;;;;;;;30.13;17.75;;;;;;;0.33;95.05;96200.84;2036178;29;20364;-55
2022/12/06 03:06:40;;;;;;;31.95;18.58;;;;;;;0.33;95.30;96206.78;2041570;29;20064;-56
2022/12/06 03:07:43;;;;;;;30.80;17.70;;;;;;;0.31;94.88;96197.44;2040860;29;20062;-55
2022/12/06 03:08:57;;;;;;;31.20;17.92;;;;;;;0.35;95.14;96206.78;2041346;29;20495;-55
2022/12/06 03:10:05;;;;;;;32.35;19.20;;;;;;;0.35;95.41;96202.53;2035234;29;20048;-55
2022/12/06 03:11:06;;;;;;;30.85;19.17;;;;;;;0.36;94.91;96205.94;2041045;29;20436;-56
2022/12/06 03:12:37;;;;;;;31.02;17.92;;;;;;;0.34;94.97;96199.97;2041417;29;20056;-55
2022/12/06 03:13:47;;;;;;;31.35;18.27;;;;;;;0.36;95.10;96203.38;2001635;29;20407;-55
2022/12/06 03:14:54;;;;;;;31.92;18.45;;;;;;;0.31;95.35;96192.31;2041048;29;20056;-55
2022/12/06 03:16:07;;;;;;;29.45;17.92;;;;;;;0.39;95.32;96200.81;2041436;29;20059;-55
2022/12/06 03:17:22;;;;;;;30.42;18.27;;;;;;;0.39;94.91;96198.25;2041369;29;20062;-61
2022/12/06 03:18:48;;;;;;;32.90;18.77;;;;;;;0.42;94.84;96199.06;2048427;29;20467;-62
2022/12/06 03:19:54;;;;;;;30.92;17.70;;;;;;;0.37;94.83;96192.28;2017533;29;20443;-61
2022/12/06 03:20:58;;;;;;;30.85;18.33;;;;;;;0.43;94.93;96195.69;2040441;29;20043;-62
2022/12/06 03:22:03;;;;;;;32.35;18.92;;;;;;;0.45;94.63;96195.66;2048876;29;20059;-62
2022/12/06 03:23:04;;;;;;;30.90;19.25;;;;;;;0.46;94.55;96196.53;2040440;29;20044;-62
2022/12/06 03:24:07;;;;;;;29.63;18.05;;;;;;;0.34;94.74;96180.38;2025810;29;20044;-62
2022/12/06 03:25:08;;;;;;;30.85;18.38;;;;;;;0.47;94.65;96196.50;2025877;29;20056;-61
2022/12/06 03:26:10;;;;;;;30.95;18.05;;;;;;;0.50;94.76;96190.53;2025590;29;20052;-62
2022/12/06 03:27:15;;;;;;;27.92;17.55;;;;;;;0.53;94.49;96195.63;2033047;29;20059;-62
2022/12/06 03:28:16;;;;;;;29.55;17.92;;;;;;;0.51;94.23;96200.75;2033855;29;20051;-62
2022/12/06 03:29:19;;;;;;;29.73;18.80;;;;;;;0.51;94.40;96198.19;2033835;29;20051;-62
2022/12/06 03:30:20;;;;;;;30.23;18.23;;;;;;;0.47;94.27;96193.94;2025784;29;20382;-62
2022/12/06 03:31:21;;;;;;;29.33;18.98;;;;;;;0.45;94.45;96190.53;2033675;29;20056;-61
2022/12/06 03:32:24;;;;;;;31.08;18.88;;;;;;;0.48;94.40;96195.63;2040825;29;20097;-61
2022/12/06 03:33:25;;;;;;;30.50;19.23;;;;;;;0.50;94.30;96196.47;2041091;29;20512;-62
2022/12/06 03:34:32;;;;;;;30.70;18.63;;;;;;;0.50;94.42;96191.38;2040765;29;20048;-61
2022/12/06 03:35:33;;;;;;;28.65;17.85;;;;;;;0.51;94.60;96187.09;2034313;29;20064;-62
2022/12/06 03:36:34;;;;;;;32.58;19.25;;;;;;;0.52;94.17;96191.38;2033396;29;20052;-62
2022/12/06 03:37:35;;;;;;;31.10;20.08;;;;;;;0.54;94.41;96187.97;2033256;29;20048;-62
2022/12/06 03:38:49;;;;;;;30.08;18.27;;;;;;;0.52;94.46;96189.66;2025534;29;20386;-62
2022/12/06 03:40:10;;;;;;;29.52;17.65;;;;;;;0.56;94.66;96195.59;2027204;29;20060;-61
2022/12/06 03:41:11;;;;;;;33.08;18.73;;;;;;;0.55;94.42;96189.66;2032108;29;20078;-62
2022/12/06 03:42:12;;;;;;;31.67;19.13;;;;;;;0.52;94.05;96189.66;2032802;29;20470;-62
2022/12/06 03:43:14;;;;;;;29.15;18.42;;;;;;;0.48;94.23;96170.06;2033262;29;20130;-62
2022/12/06 03:44:15;;;;;;;34.15;19.75;;;;;;;0.56;94.24;96191.38;2040669;29;20118;-61
2022/12/06 03:45:16;;;;;;;32.85;19.13;;;;;;;0.54;94.27;96187.13;2041814;29;20060;-62
2022/12/06 03:46:28;;;;;;;33.20;19.70;;;;;;;0.48;94.72;96175.19;2041198;29;20047;-61
2022/12/06 03:47:35;;;;;;;34.38;19.02;;;;;;;0.57;93.92;96184.53;2026911;29;20178;-54
2022/12/06 03:48:39;;;;;;;32.15;19.70;;;;;;;0.59;94.20;96187.94;2027945;29;20067;-54
2022/12/06 03:49:47;;;;;;;35.42;19.75;;;;;;;0.51;94.24;96170.09;2033996;29;20040;-55
2022/12/06 03:51:01;;;;;;;30.48;17.35;;;;;;;0.49;93.99;96171.81;2034561;29;20059;-54
2022/12/06 03:52:02;;;;;;;32.40;19.45;;;;;;;0.53;94.23;96181.13;2035349;29;20146;-55
2022/12/06 03:53:03;;;;;;;32.83;20.10;;;;;;;0.55;93.97;96184.53;2026291;29;20060;-55
2022/12/06 03:54:05;;;;;;;33.58;20.27;;;;;;;0.58;94.40;96186.22;2033015;29;20070;-55
2022/12/06 03:55:07;;;;;;;33.33;19.15;;;;;;;0.60;94.13;96190.47;2041201;29;20055;-54
2022/12/06 03:56:08;;;;;;;33.97;20.15;;;;;;;0.57;94.16;96190.50;2040787;29;20059;-55
2022/12/06 03:57:09;;;;;;;31.13;19.65;;;;;;;0.53;94.24;96185.41;2041856;29;20055;-55
2022/12/06 03:58:11;;;;;;;35.85;20.08;;;;;;;0.49;94.18;96182.03;2041684;29;20070;-55
2022/12/06 03:59:12;;;;;;;35.85;20.52;;;;;;;0.48;93.91;96189.69;2041853;29;20055;-55
2022/12/06 04:00:15;;;;;;;35.38;20.25;;;;;;;0.46;93.93;96183.75;2041783;29;20392;-56
2022/12/06 04:01:16;;;;;;;36.20;21.63;;;;;;;0.37;93.64;96182.91;2041089;29;20063;-55
2022/12/06 04:02:17;;;;;;;35.00;20.05;;;;;;;0.32;93.34;96179.56;2041857;29;20047;-54
2022/12/06 04:03:18;;;;;;;36.50;20.42;;;;;;;0.27;93.64;96182.94;2041268;29;20102;-54
2022/12/06 04:04:19;;;;;;;37.40;21.65;;;;;;;0.24;93.91;96182.97;2041431;29;20059;-56
2022/12/06 04:05:20;;;;;;;37.05;21.40;;;;;;;0.17;94.10;96183.00;2041166;29;20062;-55
2022/12/06 04:06:22;;;;;;;36.20;21.33;;;;;;;0.14;94.35;96190.69;2041470;29;20056;-55
2022/12/06 04:07:23;;;;;;;40.35;23.02;;;;;;;0.10;94.72;96186.41;2041291;29;20059;-55
2022/12/06 04:08:24;;;;;;;43.60;23.33;;;;;;;0.04;94.60;96186.44;2041930;29;20051;-55
2022/12/06 04:10:45;;;;;;;38.67;20.98;;;;;;;-0.09;94.68;96177.13;2041324;29;20086;-55
2022/12/06 04:11:46;;;;;;;37.90;20.85;;;;;;;-0.12;94.96;96177.97;2041563;29;20055;-60
2022/12/06 04:12:59;;;;;;;40.70;21.52;;;;;;;-0.14;95.24;96182.25;2041609;29;20487;-59
2022/12/06 04:14:00;;;;;;;37.53;21.33;;;;;;;-0.14;95.21;96176.28;2041999;29;20480;-59
2022/12/06 04:15:03;;;;;;;39.90;22.77;;;;;;;-0.16;95.27;96183.97;2041776;29;20051;-60
2022/12/06 04:18:09;;;;;;;43.45;22.27;;;;;;;-0.21;95.25;96170.38;2041523;29;20407;-59
2022/12/06 04:18:46;;;;;;;43.08;22.70;;;;;;;-0.32;95.36;96170.38;2041437;29;20082;-62
2022/12/06 04:19:47;;;;;;;41.72;23.30;;;;;;;-0.32;94.93;96165.28;2041202;29;20391;-62
2022/12/06 04:23:39;;;;;;;44.28;22.52;;;;;;;-0.46;95.39;96164.44;2041067;29;20450;-61
2022/12/06 04:24:40;;;;;;;44.75;23.00;;;;;;;-0.50;95.47;96161.06;2041670;29;20058;-61
2022/12/06 04:25:41;;;;;;;46.25;24.10;;;;;;;-0.51;95.38;96161.91;2041367;29;20056;-62
2022/12/06 04:26:42;;;;;;;48.30;24.95;;;;;;;-0.54;95.64;96163.59;2041488;29;20408;-61
2022/12/06 04:39:40;;;;;;;51.60;25.25;;;;;;;-0.50;97.20;96157.66;2041279;29;20075;-61
2022/12/06 04:40:41;;;;;;;50.83;25.02;;;;;;;-0.50;96.65;96165.31;2041228;29;20067;-61
2022/12/06 04:44:21;;;;;;;49.20;24.80;;;;;;;-0.53;96.60;96157.66;2041304;29;20082;-62
2022/12/06 04:45:22;;;;;;;53.72;25.73;;;;;;;-0.52;96.92;96162.75;2041469;29;20059;-62
2022/12/06 04:46:24;;;;;;;53.55;25.10;;;;;;;-0.53;96.67;96158.50;2041369;29;20048;-61
2022/12/06 04:47:25;;;;;;;49.05;26.63;;;;;;;-0.53;96.04;96163.63;2041721;29;20051;-61
2022/12/06 04:48:26;;;;;;;49.05;24.63;;;;;;;-0.53;96.86;96150.84;2041654;29;20047;-61
2022/12/06 04:49:27;;;;;;;55.33;27.92;;;;;;;-0.56;96.20;96153.41;2041567;29;20052;-62
2022/12/06 04:50:28;;;;;;;56.38;27.17;;;;;;;-0.49;96.30;96155.09;2041260;29;20070;-61
2022/12/06 04:51:29;;;;;;;55.50;27.05;;;;;;;-0.49;96.09;96159.34;2041212;29;20067;-61
2022/12/06 04:52:30;;;;;;;53.95;27.23;;;;;;;-0.48;96.45;96159.34;2041126;29;20051;-61
2022/12/06 04:53:32;;;;;;;51.53;26.45;;;;;;;-0.46;96.22;96159.34;2041560;29;20484;-61
2022/12/06 04:54:33;;;;;;;52.08;25.65;;;;;;;-0.44;96.43;96152.53;2041727;29;20048;-61
2022/12/06 04:55:34;;;;;;;48.05;25.10;;;;;;;-0.40;95.89;96158.47;2041306;29;20064;-61
2022/12/06 04:56:35;;;;;;;54.60;26.92;;;;;;;-0.39;96.54;96165.28;2041845;29;20070;-59
2022/12/06 04:57:36;;;;;;;51.67;26.45;;;;;;;-0.42;96.37;96152.56;2041180;29;20051;-59
2022/12/06 04:58:37;;;;;;;50.40;26.55;;;;;;;-0.47;96.26;96152.53;2041666;29;20039;-59
2022/12/06 04:59:39;;;;;;;52.17;25.85;;;;;;;-0.38;96.04;96162.72;2041437;29;20051;-59
2022/12/06 05:00:43;;;;;;;47.05;25.45;;;;;;;-0.34;96.63;96166.13;2041315;29;20048;-59
2022/12/06 05:01:44;;;;;;;50.17;25.17;;;;;;;-0.33;96.06;96166.13;2041644;29;20433;-62
2022/12/06 05:02:45;;;;;;;50.38;26.00;;;;;;;-0.30;96.16;96163.56;2041653;29;20516;-62
2022/12/06 05:03:47;;;;;;;48.63;24.73;;;;;;;-0.25;96.00;96159.28;2041449;29;20059;-61
2022/12/06 05:04:48;;;;;;;46.83;25.02;;;;;;;-0.24;95.91;96162.72;2040845;29;20059;-61
2022/12/06 05:05:49;;;;;;;50.75;24.65;;;;;;;-0.19;96.36;96157.59;2041216;29;20066;-61
2022/12/06 05:06:51;;;;;;;48.67;24.60;;;;;;;-0.17;95.87;96166.94;2040776;29;20071;-61
2022/12/06 05:07:52;;;;;;;47.30;25.50;;;;;;;-0.14;96.09;96160.97;2040905;29;20087;-61
2022/12/06 05:08:53;;;;;;;44.97;24.98;;;;;;;-0.12;95.92;96151.63;2041509;29;20060;-61
2022/12/06 05:09:54;;;;;;;52.22;26.05;;;;;;;-0.14;95.85;96164.38;2041584;29;20051;-61
2022/12/06 05:10:55;;;;;;;46.72;24.63;;;;;;;-0.12;96.41;96155.00;2041530;29;20071;-60
2022/12/06 05:11:56;;;;;;;48.85;25.20;;;;;;;-0.12;95.99;96160.13;2041560;29;20044;-62
2022/12/06 05:12:58;;;;;;;45.00;22.77;;;;;;;-0.15;95.90;96154.19;2041567;29;20039;-61
2022/12/06 05:13:59;;;;;;;46.25;24.73;;;;;;;-0.12;95.58;96161.81;2041562;29;20054;-61
2022/12/06 05:15:00;;;;;;;45.15;23.83;;;;;;;-0.13;95.61;96160.97;2041342;29;20058;-62
2022/12/06 05:16:03;;;;;;;49.75;25.92;;;;;;;-0.16;95.81;96152.47;2041283;29;20383;-61
2022/12/06 05:17:04;;;;;;;46.60;24.98;;;;;;;-0.16;95.70;96160.13;2041426;29;20051;-61